Ouderkerk aan de Amstel, Netherlands
Current Conditions -  °F | °C
As of 2:25 AM on Monday 29 Dec 2014 (Local Time) from EHAM Reporting Station
Rain Showers Rain Showers  
Wind Chill: 32°   Ceiling: Unl
Heat Index: 41°   Visibility: 6mi
Dew Point: 36°   Wind: 17mph
Humidity: 81%   Direction: 310°NW
Pressure: 30.45"   Gusts: NA
Location:  52.3°N, 4.91°E
Report Text: EHAM 290125Z 31015KT 9999 VCSH FEW016 FEW020CB 05/02 Q1031 RERATEMPO 31015G25KT 6000 -SHRA
Loading
Personal Weather Stations






























Interactive Weather Map New forecast layout! Learn more

10-Day Weather Forecast

Advertisements
Track Severe Weather on mobile